createdAt,value
2023-02-12T00:00:44.040Z,35.13
2023-02-12T00:03:11.473Z,34.73
2023-02-12T00:05:41.615Z,34.13
2023-02-12T00:08:09.399Z,34.80
2023-02-12T00:10:40.704Z,34.83
2023-02-12T00:13:07.894Z,34.83
2023-02-12T00:15:35.294Z,32.90
2023-02-12T00:18:02.358Z,33.23
2023-02-12T00:20:29.637Z,31.93
2023-02-12T00:23:00.246Z,29.77
2023-02-12T00:25:27.224Z,31.43
2023-02-12T00:27:54.125Z,32.27
2023-02-12T00:30:21.273Z,31.57
2023-02-12T00:32:48.180Z,30.57
2023-02-12T00:35:16.076Z,30.83
2023-02-12T00:37:43.157Z,31.30
2023-02-12T00:40:12.802Z,31.00
2023-02-12T00:42:39.717Z,30.27
2023-02-12T00:45:07.852Z,32.00
2023-02-12T00:47:34.692Z,32.77
2023-02-12T00:50:01.938Z,32.50
2023-02-12T00:52:28.782Z,32.73
2023-02-12T00:54:55.618Z,31.87
2023-02-12T00:57:23.835Z,33.47
2023-02-12T00:59:51.269Z,35.03
2023-02-12T01:02:18.166Z,34.23
2023-02-12T01:04:45.386Z,32.87
2023-02-12T01:07:12.323Z,33.37
2023-02-12T01:09:39.227Z,32.70
2023-02-12T01:12:07.393Z,32.30
2023-02-12T01:14:35.658Z,31.57
2023-02-12T01:17:02.538Z,32.27
2023-02-12T01:19:29.749Z,29.87
2023-02-12T01:21:56.631Z,31.43
2023-02-12T01:24:23.834Z,31.47
2023-02-12T01:26:51.697Z,30.83
2023-02-12T01:29:18.633Z,29.47
2023-02-12T01:31:47.017Z,29.67
2023-02-12T01:34:14.304Z,29.57
2023-02-12T01:36:41.117Z,26.60
2023-02-12T01:39:08.390Z,26.97
2023-02-12T01:41:38.921Z,26.30
2023-02-12T01:44:17.095Z,28.10
2023-02-12T01:46:46.527Z,28.23
2023-02-12T01:49:20.060Z,27.83
2023-02-12T01:51:49.081Z,26.73
2023-02-12T01:54:17.994Z,28.43
2023-02-12T01:56:44.930Z,25.80
2023-02-12T01:59:13.239Z,26.20
2023-02-12T02:01:40.359Z,25.17
2023-02-12T02:04:14.047Z,25.57
2023-02-12T02:06:46.162Z,24.63
2023-02-12T02:09:13.902Z,24.27
2023-02-12T02:11:59.232Z,25.70
2023-02-12T02:14:32.847Z,25.80
2023-02-12T02:17:27.542Z,25.07
2023-02-12T02:20:29.861Z,25.80
2023-02-12T02:23:10.300Z,25.17
2023-02-12T02:25:57.618Z,25.13
2023-02-12T02:28:42.704Z,26.63
2023-02-12T02:31:16.774Z,25.90
2023-02-12T02:33:54.844Z,28.07
2023-02-12T02:36:28.399Z,27.63
2023-02-12T02:39:02.278Z,26.93
2023-02-12T02:41:34.540Z,29.10
2023-02-12T02:44:08.035Z,28.67
2023-02-12T02:46:43.894Z,26.33
2023-02-12T02:49:16.750Z,28.27
2023-02-12T02:51:48.370Z,28.47
2023-02-12T02:54:19.915Z,27.30
2023-02-12T02:56:51.108Z,27.53
2023-02-12T02:59:22.490Z,27.37
2023-02-12T03:01:55.227Z,27.73
2023-02-12T03:04:29.572Z,27.07
2023-02-12T03:07:00.831Z,26.07
2023-02-12T03:09:34.067Z,25.13
2023-02-12T03:12:09.141Z,26.13
2023-02-12T03:14:41.022Z,25.27
2023-02-12T03:17:13.912Z,24.93
2023-02-12T03:19:44.830Z,23.63
2023-02-12T03:22:16.813Z,23.20
2023-02-12T03:24:47.035Z,24.87
2023-02-12T03:27:19.502Z,23.93
2023-02-12T03:29:46.995Z,24.03
2023-02-12T03:32:28.515Z,25.03
2023-02-12T03:35:04.066Z,24.60
2023-02-12T03:37:34.505Z,25.60
2023-02-12T03:40:08.169Z,24.20
2023-02-12T03:42:41.850Z,24.90
2023-02-12T03:45:14.303Z,25.47
2023-02-12T03:47:47.880Z,25.70
2023-02-12T03:50:19.052Z,25.23
2023-02-12T03:52:46.990Z,25.30
2023-02-12T03:55:14.445Z,23.77
2023-02-12T03:57:44.570Z,22.97
2023-02-12T04:00:17.849Z,24.13
2023-02-12T04:02:46.987Z,22.87
2023-02-12T04:05:20.550Z,23.80
2023-02-12T04:07:48.328Z,24.70
2023-02-12T04:10:16.497Z,23.07
2023-02-12T04:12:52.173Z,23.40
2023-02-12T04:15:34.165Z,22.77
2023-02-12T04:18:10.870Z,23.73
2023-02-12T04:20:48.255Z,23.87
2023-02-12T04:23:31.039Z,21.50
2023-02-12T04:26:08.817Z,23.30
2023-02-12T04:28:43.286Z,23.67
2023-02-12T04:31:20.509Z,23.27
2023-02-12T04:33:57.013Z,24.83
2023-02-12T04:36:27.749Z,23.43
2023-02-12T04:38:59.066Z,24.37
2023-02-12T04:41:26.970Z,23.03
2023-02-12T04:43:54.287Z,23.33
2023-02-12T04:46:21.235Z,24.80
2023-02-12T04:48:54.210Z,25.20
2023-02-12T04:51:21.179Z,24.80
2023-02-12T04:53:49.142Z,24.20
2023-02-12T04:56:16.493Z,23.13
2023-02-12T04:58:43.728Z,24.83
2023-02-12T05:01:11.232Z,24.53
2023-02-12T05:03:38.367Z,24.73
2023-02-12T05:06:09.028Z,26.27
2023-02-12T05:08:36.272Z,24.90
2023-02-12T05:11:07.186Z,25.57
2023-02-12T05:13:34.612Z,25.43
2023-02-12T05:16:04.365Z,25.87
2023-02-12T05:18:31.644Z,25.87
2023-02-12T05:20:59.895Z,27.63
2023-02-12T05:23:29.488Z,26.90
2023-02-12T05:26:00.164Z,27.40
2023-02-12T05:28:27.443Z,25.60
2023-02-12T05:30:55.080Z,26.50
2023-02-12T05:33:21.970Z,27.23
2023-02-12T05:35:50.278Z,27.53
2023-02-12T05:38:17.102Z,26.13
2023-02-12T05:40:45.292Z,26.03
2023-02-12T05:43:12.199Z,26.23
2023-02-12T05:45:41.551Z,27.73
2023-02-12T05:48:08.421Z,28.40
2023-02-12T05:50:35.223Z,29.40
2023-02-12T05:53:02.490Z,28.83
2023-02-12T05:55:29.733Z,29.00
2023-02-12T05:57:58.213Z,27.77
2023-02-12T06:00:25.337Z,27.63
2023-02-12T06:02:52.765Z,27.27
2023-02-12T06:05:19.669Z,28.33
2023-02-12T06:07:46.835Z,27.20
2023-02-12T06:10:13.730Z,28.27
2023-02-12T06:12:41.005Z,27.30
2023-02-12T06:15:09.685Z,28.87
2023-02-12T06:17:36.954Z,30.00
2023-02-12T06:20:04.674Z,29.40
2023-02-12T06:22:31.850Z,27.80
2023-02-12T06:24:58.701Z,27.93
2023-02-12T06:27:26.032Z,28.80
2023-02-12T06:29:52.926Z,26.50
2023-02-12T06:32:21.583Z,27.97
2023-02-12T06:34:48.511Z,28.90
2023-02-12T06:37:15.767Z,28.43
2023-02-12T06:39:42.610Z,27.33
2023-02-12T06:42:09.812Z,26.63
2023-02-12T06:44:36.689Z,26.47
2023-02-12T06:47:03.890Z,26.40
2023-02-12T06:49:32.230Z,26.57
2023-02-12T06:52:01.614Z,26.67
2023-02-12T06:54:29.838Z,26.53
2023-02-12T06:56:56.941Z,26.90
2023-02-12T06:59:23.793Z,26.37
2023-02-12T07:01:51.171Z,26.97
2023-02-12T07:04:18.164Z,26.40
2023-02-12T07:06:46.809Z,27.10
2023-02-12T07:09:14.043Z,25.63
2023-02-12T07:11:41.287Z,28.77
2023-02-12T07:14:08.346Z,27.13
2023-02-12T07:16:35.273Z,27.93
2023-02-12T07:19:02.441Z,25.70
2023-02-12T07:21:29.672Z,26.27
2023-02-12T07:23:57.969Z,27.57
2023-02-12T07:26:24.784Z,27.77
2023-02-12T07:28:51.744Z,27.83
2023-02-12T07:31:20.603Z,28.27
2023-02-12T07:33:49.354Z,28.13
2023-02-12T07:36:17.997Z,29.17
2023-02-12T07:38:45.019Z,29.60
2023-02-12T07:41:15.377Z,28.77
2023-02-12T07:43:44.111Z,28.80
2023-02-12T07:46:13.253Z,29.27
2023-02-12T07:48:40.312Z,28.33
2023-02-12T07:51:09.017Z,30.30
2023-02-12T07:53:36.844Z,28.97
2023-02-12T07:56:12.353Z,27.83
2023-02-12T07:58:42.544Z,28.87
2023-02-12T08:01:17.980Z,26.27
2023-02-12T08:03:45.533Z,26.07
2023-02-12T08:06:14.507Z,26.83
2023-02-12T08:08:41.881Z,26.43
2023-02-12T08:11:11.015Z,25.80
2023-02-12T08:13:40.206Z,24.77
2023-02-12T08:16:09.350Z,24.10
2023-02-12T08:18:36.347Z,25.27
2023-02-12T08:21:04.716Z,23.67
2023-02-12T08:23:32.175Z,23.13
2023-02-12T08:26:07.367Z,23.40
2023-02-12T08:28:35.067Z,24.03
2023-02-12T08:31:05.234Z,25.43
2023-02-12T08:33:32.732Z,25.47
2023-02-12T08:36:04.139Z,25.37
2023-02-12T08:38:31.772Z,27.03
2023-02-12T08:41:02.494Z,27.20
2023-02-12T08:43:29.792Z,25.50
2023-02-12T08:46:03.597Z,24.73
2023-02-12T08:48:30.973Z,24.03
2023-02-12T08:51:04.790Z,24.20
2023-02-12T08:53:32.114Z,24.13
2023-02-12T08:55:59.328Z,23.07
2023-02-12T08:58:26.342Z,22.13
2023-02-12T09:00:53.288Z,24.17
2023-02-12T09:03:21.835Z,23.13
2023-02-12T09:05:48.756Z,21.53
2023-02-12T09:08:16.402Z,20.63
2023-02-12T09:10:43.987Z,20.47
2023-02-12T09:13:12.357Z,19.37
2023-02-12T09:15:39.547Z,19.33
2023-02-12T09:18:07.122Z,19.33
2023-02-12T09:20:38.537Z,21.13
2023-02-12T09:23:05.956Z,20.23
2023-02-12T09:25:36.066Z,19.90
2023-02-12T09:28:03.605Z,19.37
2023-02-12T09:30:30.563Z,17.97
2023-02-12T09:32:57.695Z,16.67
2023-02-12T09:35:24.851Z,15.40
2023-02-12T09:37:54.552Z,17.03
2023-02-12T09:40:24.418Z,16.07
2023-02-12T09:43:06.415Z,16.27
2023-02-12T09:45:38.194Z,13.77
2023-02-12T09:48:16.656Z,13.43
2023-02-12T09:50:49.314Z,13.17
2023-02-12T09:53:21.333Z,14.13
2023-02-12T09:55:48.192Z,14.33
2023-02-12T09:58:17.972Z,13.77
2023-02-12T10:00:45.630Z,14.83
2023-02-12T10:03:16.323Z,16.30
2023-02-12T10:05:48.537Z,16.93
2023-02-12T10:08:39.116Z,17.67
2023-02-12T10:11:22.818Z,16.53
2023-02-12T10:14:01.550Z,15.73
2023-02-12T10:16:40.827Z,15.83
2023-02-12T10:19:21.549Z,15.50
2023-02-12T10:21:59.709Z,15.03
2023-02-12T10:24:49.596Z,16.27
2023-02-12T10:27:17.933Z,16.37
2023-02-12T10:29:47.190Z,15.93
2023-02-12T10:32:21.825Z,17.53
2023-02-12T10:34:51.192Z,16.90
2023-02-12T10:37:28.239Z,15.87
2023-02-12T10:40:03.607Z,17.80
2023-02-12T10:42:38.306Z,18.47
2023-02-12T10:45:06.295Z,18.13
2023-02-12T10:47:33.163Z,18.43
2023-02-12T10:50:13.668Z,17.17
2023-02-12T10:52:47.226Z,17.33
2023-02-12T10:55:27.041Z,19.23
2023-02-12T10:57:54.758Z,17.27
2023-02-12T11:00:26.412Z,18.27
2023-02-12T11:03:04.885Z,18.47
2023-02-12T11:05:35.796Z,18.77
2023-02-12T11:08:03.218Z,18.20
2023-02-12T11:10:38.587Z,17.93
2023-02-12T11:13:05.960Z,17.87
2023-02-12T11:15:38.338Z,18.03
2023-02-12T11:18:11.399Z,17.03
2023-02-12T11:20:41.404Z,15.60
2023-02-12T11:23:25.463Z,17.60
2023-02-12T11:25:58.905Z,16.87
2023-02-12T11:28:26.573Z,16.43
2023-02-12T11:30:56.819Z,18.13
2023-02-12T11:33:27.872Z,18.33
2023-02-12T11:35:57.622Z,17.50
2023-02-12T11:38:48.870Z,16.77
2023-02-12T11:41:26.026Z,17.27
2023-02-12T11:43:53.436Z,18.33
2023-02-12T11:46:23.036Z,18.23
2023-02-12T11:48:51.156Z,17.53
2023-02-12T11:51:21.896Z,19.73
2023-02-12T11:53:51.944Z,18.77
2023-02-12T11:56:20.795Z,18.20
2023-02-12T11:58:48.274Z,18.07
2023-02-12T12:01:19.666Z,17.67
2023-02-12T12:03:54.725Z,16.47
2023-02-12T12:06:31.479Z,16.87
2023-02-12T12:09:05.258Z,16.20
2023-02-12T12:11:43.825Z,16.57
2023-02-12T12:14:18.658Z,16.33
2023-02-12T12:17:13.349Z,15.93
2023-02-12T12:19:53.751Z,15.53
2023-02-12T12:22:35.524Z,14.73
2023-02-12T12:25:10.583Z,15.53
2023-02-12T12:28:03.671Z,14.40
2023-02-12T12:30:42.179Z,16.10
2023-02-12T12:33:17.448Z,16.50
2023-02-12T12:35:55.378Z,16.30
2023-02-12T12:38:31.821Z,16.47
2023-02-12T12:41:06.962Z,16.00
2023-02-12T12:43:48.816Z,15.97
2023-02-12T12:46:48.003Z,16.23
2023-02-12T12:49:44.675Z,16.00
2023-02-12T12:52:33.137Z,16.80
2023-02-12T12:55:24.326Z,16.90
2023-02-12T12:58:00.359Z,17.50
2023-02-12T13:00:49.119Z,17.03
2023-02-12T13:03:33.928Z,16.97
2023-02-12T13:06:27.940Z,16.93
2023-02-12T13:09:11.748Z,18.13
2023-02-12T13:11:46.715Z,16.10
2023-02-12T13:14:27.791Z,15.97
2023-02-12T13:17:01.112Z,17.10
2023-02-12T13:19:37.298Z,16.23
2023-02-12T13:22:13.639Z,16.27
2023-02-12T13:24:45.015Z,16.70
2023-02-12T13:27:16.554Z,16.50
2023-02-12T13:29:48.209Z,17.33
2023-02-12T13:32:24.440Z,16.33
2023-02-12T13:34:54.396Z,15.77
2023-02-12T13:37:32.998Z,16.17
2023-02-12T13:40:04.462Z,15.17
2023-02-12T13:42:43.250Z,15.50
2023-02-12T13:45:24.532Z,16.33
2023-02-12T13:48:06.410Z,18.03
2023-02-12T13:50:42.293Z,16.53
2023-02-12T13:53:19.862Z,15.83
2023-02-12T13:56:02.050Z,15.73
2023-02-12T13:58:49.153Z,16.03
2023-02-12T14:01:38.874Z,15.90
2023-02-12T14:04:27.701Z,16.73
2023-02-12T14:07:00.639Z,16.07
2023-02-12T14:09:33.603Z,16.77
2023-02-12T14:12:02.364Z,16.40
2023-02-12T14:14:33.915Z,16.93
2023-02-12T14:17:34.502Z,16.67
2023-02-12T14:20:09.225Z,15.47
2023-02-12T14:23:00.088Z,15.30
2023-02-12T14:25:38.672Z,15.73
2023-02-12T14:28:21.278Z,15.33
2023-02-12T14:31:29.163Z,15.83
2023-02-12T14:34:25.819Z,14.63
2023-02-12T14:37:11.892Z,14.90
2023-02-12T14:39:39.044Z,13.80
2023-02-12T14:42:48.540Z,13.73
2023-02-12T14:45:32.345Z,13.80
2023-02-12T14:48:01.386Z,14.10
2023-02-12T14:50:38.948Z,14.10
2023-02-12T14:53:23.337Z,15.60
2023-02-12T14:55:51.821Z,14.43
2023-02-12T14:58:20.785Z,13.93
2023-02-12T15:00:50.967Z,12.77
2023-02-12T15:03:25.972Z,12.67
2023-02-12T15:05:59.930Z,12.40
2023-02-12T15:08:32.584Z,12.10
2023-02-12T15:11:08.035Z,12.03
2023-02-12T15:13:46.545Z,12.07
2023-02-12T15:16:18.885Z,11.10
2023-02-12T15:18:53.571Z,11.93
2023-02-12T15:21:23.883Z,10.93
2023-02-12T15:24:01.684Z,12.13
2023-02-12T15:26:31.680Z,12.50
2023-02-12T15:28:59.331Z,11.03
2023-02-12T15:31:30.521Z,10.87
2023-02-12T15:34:01.300Z,10.70
2023-02-12T15:36:31.211Z,10.87
2023-02-12T15:39:01.479Z,10.90
2023-02-12T15:41:35.321Z,12.20
2023-02-12T15:44:04.411Z,11.57
2023-02-12T15:46:31.714Z,13.57
2023-02-12T15:49:00.263Z,11.53
2023-02-12T15:51:33.393Z,11.77
2023-02-12T15:54:01.661Z,11.93
2023-02-12T15:56:28.894Z,12.63
2023-02-12T15:58:58.119Z,12.40
2023-02-12T16:01:27.714Z,12.90
2023-02-12T16:03:57.759Z,12.67
2023-02-12T16:06:28.557Z,12.17
2023-02-12T16:08:58.925Z,13.20
2023-02-12T16:11:28.405Z,13.10
2023-02-12T16:13:59.574Z,12.83
2023-02-12T16:16:29.120Z,12.70
2023-02-12T16:19:08.679Z,12.60
2023-02-12T16:21:39.065Z,13.63
2023-02-12T16:24:26.778Z,15.43
2023-02-12T16:26:54.824Z,15.20
2023-02-12T16:29:22.344Z,15.83
2023-02-12T16:31:58.885Z,16.80
2023-02-12T16:34:32.770Z,17.27
2023-02-12T16:37:01.630Z,19.03
2023-02-12T16:40:16.792Z,19.07
2023-02-12T16:42:57.340Z,18.93
2023-02-12T16:45:48.420Z,19.20
2023-02-12T16:48:24.938Z,19.70
2023-02-12T16:50:55.976Z,18.07
2023-02-12T16:53:31.824Z,17.50
2023-02-12T16:55:59.716Z,16.97
2023-02-12T16:58:27.443Z,16.63
2023-02-12T17:00:56.687Z,17.27
2023-02-12T17:03:24.590Z,17.40
2023-02-12T17:05:52.848Z,16.43
2023-02-12T17:08:22.478Z,17.40
2023-02-12T17:10:51.242Z,16.50
2023-02-12T17:13:19.160Z,16.83
2023-02-12T17:15:50.894Z,16.70
2023-02-12T17:18:18.301Z,15.70
2023-02-12T17:20:49.121Z,15.70
2023-02-12T17:23:16.070Z,15.47
2023-02-12T17:25:43.430Z,16.03
2023-02-12T17:28:11.706Z,16.90
2023-02-12T17:30:39.102Z,17.80
2023-02-12T17:33:05.953Z,18.70
2023-02-12T17:35:33.866Z,17.97
2023-02-12T17:38:00.738Z,18.33
2023-02-12T17:40:27.823Z,18.57
2023-02-12T17:42:54.682Z,18.53
2023-02-12T17:45:23.153Z,19.23
2023-02-12T17:47:50.066Z,19.53
2023-02-12T17:50:18.461Z,19.23
2023-02-12T17:52:45.619Z,19.83
2023-02-12T17:55:13.851Z,19.23
2023-02-12T17:57:41.051Z,19.57
2023-02-12T18:00:15.802Z,19.00
2023-02-12T18:02:44.251Z,18.70
2023-02-12T18:05:11.127Z,16.10
2023-02-12T18:07:38.257Z,15.90
2023-02-12T18:10:06.509Z,14.53
2023-02-12T18:12:33.918Z,14.97
2023-02-12T18:15:02.992Z,14.73
2023-02-12T18:17:30.097Z,14.83
2023-02-12T18:19:58.705Z,15.37
2023-02-12T18:22:25.912Z,14.57
2023-02-12T18:24:53.150Z,14.90
2023-02-12T18:27:20.034Z,16.77
2023-02-12T18:29:47.295Z,17.53
2023-02-12T18:32:16.102Z,17.93
2023-02-12T18:34:43.912Z,19.43
2023-02-12T18:37:13.464Z,21.67
2023-02-12T18:39:40.887Z,20.07
2023-02-12T18:42:08.818Z,20.60
2023-02-12T18:44:36.124Z,21.43
2023-02-12T18:47:03.564Z,21.70
2023-02-12T18:49:30.878Z,22.17
2023-02-12T18:51:57.864Z,20.30
2023-02-12T18:54:26.885Z,19.77
2023-02-12T18:56:54.090Z,17.67
2023-02-12T18:59:22.085Z,18.53
2023-02-12T19:01:50.697Z,19.50
2023-02-12T19:04:19.973Z,18.40
2023-02-12T19:06:49.871Z,18.97
2023-02-12T19:09:20.380Z,18.07
2023-02-12T19:11:52.073Z,19.10
2023-02-12T19:14:21.701Z,19.07
2023-02-12T19:16:49.065Z,18.47
2023-02-12T19:19:17.605Z,19.90
2023-02-12T19:21:44.461Z,20.47
2023-02-12T19:24:13.417Z,19.73
2023-02-12T19:26:40.799Z,18.37
2023-02-12T19:29:09.034Z,18.77
2023-02-12T19:31:38.565Z,18.07
2023-02-12T19:34:07.728Z,17.70
2023-02-12T19:36:36.204Z,16.83
2023-02-12T19:39:05.200Z,17.57
2023-02-12T19:41:32.919Z,17.20
2023-02-12T19:44:01.747Z,17.17
2023-02-12T19:46:31.312Z,15.03
2023-02-12T19:52:45.830Z,16.70
2023-02-12T19:55:12.967Z,17.80
2023-02-12T19:57:41.432Z,16.10
2023-02-12T20:00:09.384Z,14.50
2023-02-12T20:02:38.014Z,16.07
2023-02-12T20:05:05.726Z,14.63
2023-02-12T20:07:32.819Z,14.60
2023-02-12T20:09:59.972Z,13.70
2023-02-12T20:12:26.832Z,13.77
2023-02-12T20:14:54.523Z,13.03
2023-02-12T20:17:21.998Z,12.23
2023-02-12T20:19:50.190Z,12.47
2023-02-12T20:22:17.412Z,13.67
2023-02-12T20:24:44.332Z,12.77
2023-02-12T20:27:12.237Z,12.93
2023-02-12T20:29:39.081Z,13.00
2023-02-12T20:32:06.576Z,13.10
2023-02-12T20:34:48.850Z,13.87
2023-02-12T20:37:19.085Z,13.77
2023-02-12T20:39:46.043Z,13.87
2023-02-12T20:42:13.432Z,13.80
2023-02-12T20:44:40.217Z,13.67
2023-02-12T20:47:07.101Z,13.23
2023-02-12T20:49:34.062Z,14.90
2023-02-12T20:52:01.165Z,14.73
2023-02-12T20:54:29.475Z,14.40
2023-02-12T20:56:56.666Z,14.97
2023-02-12T20:59:23.758Z,15.40
2023-02-12T21:01:51.028Z,14.77
2023-02-12T21:04:19.559Z,15.53
2023-02-12T21:06:48.759Z,15.27
2023-02-12T21:09:16.120Z,15.60
2023-02-12T21:11:46.134Z,15.77
2023-02-12T21:14:23.510Z,16.13
2023-02-12T21:16:52.546Z,15.57
2023-02-12T21:19:19.451Z,14.30
2023-02-12T21:21:47.143Z,15.97
2023-02-12T21:24:15.713Z,15.00
2023-02-12T21:26:44.561Z,15.97
2023-02-12T21:29:11.519Z,13.97
2023-02-12T21:31:40.220Z,14.87
2023-02-12T21:34:09.169Z,14.07
2023-02-12T21:36:37.635Z,14.73
2023-02-12T21:39:06.113Z,14.17
2023-02-12T21:41:35.509Z,15.10
2023-02-12T21:44:06.645Z,14.00
2023-02-12T21:46:34.248Z,15.53
2023-02-12T21:49:02.342Z,15.93
2023-02-12T21:51:31.369Z,16.00
2023-02-12T21:54:00.126Z,16.23
2023-02-12T21:56:27.533Z,15.57
2023-02-12T21:58:55.832Z,15.77
2023-02-12T22:01:26.198Z,16.27
2023-02-12T22:03:54.050Z,15.37
2023-02-12T22:06:23.323Z,14.90
2023-02-12T22:08:51.190Z,14.53
2023-02-12T22:11:18.890Z,13.27
2023-02-12T22:13:46.584Z,13.80
2023-02-12T22:16:15.614Z,15.10
2023-02-12T22:18:45.250Z,14.90
2023-02-12T22:21:14.297Z,15.37
2023-02-12T22:23:42.454Z,15.30
2023-02-12T22:26:11.196Z,16.77
2023-02-12T22:28:40.635Z,16.50
2023-02-12T22:31:08.241Z,16.10
2023-02-12T22:33:35.546Z,16.03
2023-02-12T22:36:05.468Z,16.27
2023-02-12T22:38:33.956Z,17.00
2023-02-12T22:41:00.861Z,17.50
2023-02-12T22:43:29.284Z,16.77
2023-02-12T22:45:56.186Z,16.50
2023-02-12T22:48:23.498Z,15.83
2023-02-12T22:50:50.282Z,16.33
2023-02-12T22:53:18.834Z,24.37
2023-02-12T22:55:45.754Z,21.57
2023-02-12T22:58:12.622Z,17.23
2023-02-12T23:00:40.425Z,16.07
2023-02-12T23:03:07.797Z,16.13
2023-02-12T23:05:36.545Z,15.47
2023-02-12T23:08:04.191Z,16.73
2023-02-12T23:10:33.038Z,15.40
2023-02-12T23:13:01.978Z,15.23
2023-02-12T23:15:28.921Z,15.97
2023-02-12T23:17:56.095Z,16.40
2023-02-12T23:20:22.917Z,16.27
2023-02-12T23:22:49.897Z,14.97
2023-02-12T23:25:16.974Z,16.10
2023-02-12T23:27:45.442Z,15.57
2023-02-12T23:30:13.286Z,15.83
2023-02-12T23:32:40.153Z,16.00
2023-02-12T23:35:07.284Z,16.00
2023-02-12T23:37:34.425Z,15.13
2023-02-12T23:40:01.282Z,14.53
2023-02-12T23:42:28.523Z,14.83
2023-02-12T23:44:57.592Z,15.23
2023-02-12T23:47:25.084Z,14.70
2023-02-12T23:49:51.894Z,21.40
2023-02-12T23:52:19.006Z,14.33
2023-02-12T23:54:45.848Z,15.97
2023-02-12T23:57:13.126Z,14.83
2023-02-12T23:59:39.966Z,14.63
